Time;durP1;ratioP1;P1;durP2;ratioP2;P2;SDS_P1;SDS_P2;PMS_P1;PMS_P2;Temp;Humidity;BMP_temperature;BMP_pressure;BME280_temperature;BME280_humidity;BME280_pressure;Samples;Min_cycle;Max_cycle;Signal;HPM_P1;HPM_P2
2023/08/11 00:02:37;;;;;;;9.77;6.22;;;16.40;96.10;;;;;;6151983;23;20424;-70
2023/08/11 00:05:23;;;;;;;11.10;6.47;;;16.40;96.20;;;;;;6128064;23;20068;-70
2023/08/11 00:08:13;;;;;;;11.30;6.95;;;16.40;96.30;;;;;;6150680;23;20084;-70
2023/08/11 00:10:59;;;;;;;14.90;6.90;;;16.30;96.30;;;;;;6147597;23;20033;-70
2023/08/11 00:13:45;;;;;;;12.25;6.30;;;16.30;96.40;;;;;;6151460;23;20033;-70
2023/08/11 00:16:31;;;;;;;14.55;7.20;;;16.30;96.60;;;;;;6150036;23;20009;-70
2023/08/11 00:19:17;;;;;;;13.38;6.75;;;16.20;97.10;;;;;;6151230;23;20021;-69
2023/08/11 00:22:03;;;;;;;10.63;7.00;;;16.30;97.00;;;;;;6150647;23;20041;-69
2023/08/11 00:24:49;;;;;;;10.85;6.50;;;16.20;97.00;;;;;;6149215;23;20096;-69
2023/08/11 00:27:35;;;;;;;12.45;6.97;;;16.30;97.00;;;;;;6152268;23;20012;-69
2023/08/11 00:30:23;;;;;;;12.02;6.70;;;16.20;97.10;;;;;;6127600;23;20048;-69
2023/08/11 00:33:10;;;;;;;11.15;6.50;;;16.20;97.30;;;;;;6150900;23;20002;-70
2023/08/11 00:35:56;;;;;;;9.90;6.45;;;16.20;97.30;;;;;;6150692;23;20009;-69
2023/08/11 00:38:42;;;;;;;10.88;6.80;;;16.20;97.30;;;;;;6149362;23;20436;-69
2023/08/11 00:41:28;;;;;;;9.90;6.13;;;16.20;97.50;;;;;;6149594;23;20088;-65
2023/08/11 00:44:13;;;;;;;9.88;6.03;;;16.10;97.60;;;;;;6151038;23;20431;-69
2023/08/11 00:47:00;;;;;;;11.00;6.28;;;16.10;97.80;;;;;;6150910;23;20060;-69
2023/08/11 00:49:46;;;;;;;13.98;7.05;;;16.10;97.90;;;;;;6129687;23;20006;-70
2023/08/11 00:52:32;;;;;;;12.48;7.05;;;16.10;97.90;;;;;;6151600;23;20006;-69
2023/08/11 00:55:18;;;;;;;10.25;6.22;;;16.10;98.00;;;;;;6150177;23;20005;-69
2023/08/11 00:58:06;;;;;;;10.38;6.68;;;16.10;98.00;;;;;;6130173;23;20379;-69
2023/08/11 01:00:52;;;;;;;10.02;6.88;;;16.00;98.00;;;;;;6147913;23;20008;-69
2023/08/11 01:03:40;;;;;;;10.98;6.13;;;16.00;98.30;;;;;;6130306;23;20032;-69
2023/08/11 01:06:47;;;;;;;9.45;6.35;;;16.00;98.10;;;;;;6129817;23;20068;-69
2023/08/11 01:09:58;;;;;;;10.57;6.20;;;16.00;98.10;;;;;;6150179;23;20041;-69
2023/08/11 01:13:15;;;;;;;9.70;6.82;;;15.90;98.30;;;;;;6149057;23;20009;-69
2023/08/11 01:16:04;;;;;;;12.43;6.80;;;15.90;98.50;;;;;;6147448;23;20064;-69
2023/08/11 01:18:50;;;;;;;9.70;6.15;;;15.90;98.60;;;;;;6147322;23;20044;-69
2023/08/11 01:21:40;;;;;;;9.40;6.43;;;15.90;98.70;;;;;;6149077;23;20009;-69
2023/08/11 01:24:27;;;;;;;10.07;5.93;;;15.90;98.90;;;;;;6150108;23;20009;-69
2023/08/11 01:27:14;;;;;;;10.98;7.07;;;15.80;98.90;;;;;;6148759;23;20040;-69
2023/08/11 01:30:00;;;;;;;8.88;6.10;;;15.80;98.80;;;;;;6148752;23;20562;-69
2023/08/11 01:32:46;;;;;;;10.73;6.38;;;15.80;98.80;;;;;;6130352;23;20447;-69
2023/08/11 01:35:32;;;;;;;13.57;6.28;;;15.80;99.00;;;;;;6148604;23;20470;-69
2023/08/11 01:38:17;;;;;;;10.68;6.60;;;15.80;99.10;;;;;;6150533;23;20021;-69
2023/08/11 01:41:03;;;;;;;9.90;6.43;;;15.80;99.20;;;;;;6149986;23;20087;-69
2023/08/11 01:43:51;;;;;;;10.30;6.35;;;15.70;99.40;;;;;;6149869;23;20040;-69
2023/08/11 01:46:37;;;;;;;13.13;6.90;;;15.80;99.50;;;;;;6126673;23;20001;-70
2023/08/11 01:49:26;;;;;;;10.57;6.25;;;15.70;99.60;;;;;;6150324;23;20020;-69
2023/08/11 01:52:13;;;;;;;10.00;6.43;;;15.70;99.70;;;;;;6151184;23;20006;-69
2023/08/11 01:54:59;;;;;;;11.32;6.15;;;15.70;99.70;;;;;;6148927;23;20064;-78
2023/08/11 01:57:45;;;;;;;10.00;5.95;;;15.80;99.70;;;;;;6151053;23;20100;-79
2023/08/11 02:00:31;;;;;;;11.30;6.63;;;15.70;99.70;;;;;;6154886;23;20002;-78
2023/08/11 02:03:17;;;;;;;8.20;5.55;;;15.70;99.60;;;;;;6156054;23;20309;-78
2023/08/11 02:06:03;;;;;;;8.55;6.00;;;15.70;99.60;;;;;;6129667;23;20005;-78
2023/08/11 02:08:49;;;;;;;8.95;5.75;;;15.70;99.60;;;;;;6149184;23;20096;-78
2023/08/11 02:11:37;;;;;;;7.55;5.75;;;15.70;99.70;;;;;;6145658;23;20407;-77
2023/08/11 02:14:23;;;;;;;9.05;5.10;;;15.70;99.70;;;;;;6150686;23;20437;-76
2023/08/11 02:17:08;;;;;;;11.48;5.55;;;15.70;99.80;;;;;;6150311;23;20012;-76
2023/08/11 02:19:55;;;;;;;10.52;5.65;;;15.60;99.90;;;;;;6160357;23;20013;-75
2023/08/11 02:22:40;;;;;;;7.55;4.80;;;15.70;99.90;;;;;;6165061;23;20450;-77
2023/08/11 02:25:26;;;;;;;7.80;5.32;;;15.60;99.90;;;;;;6151218;23;20347;-79
2023/08/11 02:28:12;;;;;;;16.63;6.10;;;15.70;99.90;;;;;;6149850;23;20010;-78
2023/08/11 02:30:58;;;;;;;7.82;4.88;;;15.70;99.90;;;;;;6148954;23;20024;-75
2023/08/11 02:33:44;;;;;;;11.02;6.38;;;15.70;99.90;;;;;;6150163;23;20025;-75
2023/08/11 02:36:30;;;;;;;7.65;5.35;;;15.70;99.90;;;;;;6151502;23;20017;-75
2023/08/11 02:39:16;;;;;;;12.88;5.30;;;15.70;99.90;;;;;;6149713;23;20014;-75
2023/08/11 02:42:03;;;;;;;9.00;5.65;;;15.70;99.90;;;;;;6149989;23;20022;-75
2023/08/11 02:44:49;;;;;;;9.38;5.05;;;15.80;99.90;;;;;;6151650;23;20019;-75
2023/08/11 02:47:35;;;;;;;8.43;5.03;;;15.80;99.90;;;;;;6151719;23;20033;-75
2023/08/11 02:50:21;;;;;;;13.63;5.70;;;15.80;99.90;;;;;;6150650;23;20359;-70
2023/08/11 02:53:06;;;;;;;7.78;5.15;;;15.90;99.90;;;;;;6151664;23;20044;-68
2023/08/11 02:55:52;;;;;;;8.02;5.70;;;15.90;99.90;;;;;;6151913;23;20462;-69
2023/08/11 02:58:38;;;;;;;6.95;4.88;;;15.90;99.90;;;;;;6151425;23;20285;-70
2023/08/11 03:01:25;;;;;;;9.98;6.13;;;16.00;99.90;;;;;;6151386;23;20305;-69
2023/08/11 03:04:11;;;;;;;7.13;5.15;;;16.00;99.90;;;;;;6152266;23;20020;-69
2023/08/11 03:06:56;;;;;;;7.40;5.03;;;16.00;99.90;;;;;;6131333;23;20009;-69
2023/08/11 03:09:42;;;;;;;7.00;5.25;;;16.10;99.90;;;;;;6151237;23;20096;-69
2023/08/11 03:12:28;;;;;;;11.70;5.68;;;16.10;99.90;;;;;;6129819;23;20008;-69
2023/08/11 03:15:14;;;;;;;10.20;5.95;;;16.10;99.90;;;;;;6150627;23;20355;-69
2023/08/11 03:18:00;;;;;;;11.35;5.25;;;16.20;99.90;;;;;;6152269;23;20013;-68
2023/08/11 03:20:47;;;;;;;10.07;5.10;;;16.20;99.90;;;;;;6150132;23;20056;-68
2023/08/11 03:23:34;;;;;;;7.32;4.82;;;16.20;99.90;;;;;;6153173;23;20014;-68
2023/08/11 03:26:20;;;;;;;9.40;5.32;;;16.30;99.90;;;;;;6148910;23;20440;-70
2023/08/11 03:29:06;;;;;;;8.35;5.47;;;16.30;99.90;;;;;;6150852;23;20012;-69
2023/08/11 03:31:52;;;;;;;10.00;5.55;;;16.30;99.90;;;;;;6149038;23;20133;-69
2023/08/11 03:34:38;;;;;;;12.00;5.93;;;16.30;99.90;;;;;;6152407;23;20514;-69
2023/08/11 03:37:24;;;;;;;8.63;5.60;;;16.40;99.90;;;;;;6151402;23;21924;-69
2023/08/11 03:40:12;;;;;;;8.20;4.88;;;16.40;99.90;;;;;;6151818;23;20009;-69
2023/08/11 03:42:58;;;;;;;8.48;4.97;;;16.40;99.90;;;;;;6149438;23;20024;-70
2023/08/11 03:45:44;;;;;;;8.10;5.10;;;16.40;99.90;;;;;;6151036;23;20010;-70
2023/08/11 03:48:30;;;;;;;8.90;5.50;;;16.40;99.90;;;;;;6150927;23;20312;-70
2023/08/11 03:51:16;;;;;;;8.75;5.18;;;16.40;99.90;;;;;;6150911;23;20084;-70
2023/08/11 03:54:02;;;;;;;6.53;4.53;;;16.40;99.90;;;;;;6152351;23;20431;-70
2023/08/11 03:56:48;;;;;;;6.80;4.85;;;16.50;99.90;;;;;;6150178;23;20005;-70
2023/08/11 03:59:34;;;;;;;8.93;4.45;;;16.50;99.90;;;;;;6151699;23;20018;-70
2023/08/11 04:02:20;;;;;;;6.35;4.72;;;16.50;99.90;;;;;;6150488;23;20013;-70
2023/08/11 04:05:06;;;;;;;7.47;4.93;;;16.50;99.90;;;;;;6151129;23;20005;-70
2023/08/11 04:07:53;;;;;;;12.45;5.30;;;16.60;99.90;;;;;;6130948;23;20104;-71
2023/08/11 04:10:39;;;;;;;7.55;5.07;;;16.60;99.90;;;;;;6150141;23;20037;-70
2023/08/11 04:13:25;;;;;;;7.30;4.32;;;16.60;99.90;;;;;;6152019;23;20010;-71
2023/08/11 04:16:11;;;;;;;9.23;5.55;;;16.60;99.90;;;;;;6151801;23;20014;-71
2023/08/11 04:18:57;;;;;;;7.00;5.50;;;16.70;99.90;;;;;;6150026;23;20021;-71
2023/08/11 04:21:43;;;;;;;9.77;4.70;;;16.70;99.90;;;;;;6148746;23;20014;-70
2023/08/11 04:24:29;;;;;;;7.35;4.82;;;16.70;99.90;;;;;;6150033;23;20340;-71
2023/08/11 04:27:15;;;;;;;6.88;4.70;;;16.80;99.90;;;;;;6150215;23;20423;-71
2023/08/11 04:30:02;;;;;;;11.20;5.03;;;16.80;99.90;;;;;;6150800;23;20060;-71
2023/08/11 04:32:48;;;;;;;9.93;4.18;;;16.90;99.90;;;;;;6148322;23;20009;-71
2023/08/11 04:35:34;;;;;;;9.55;5.47;;;16.90;99.90;;;;;;6149078;23;20002;-70
2023/08/11 04:38:20;;;;;;;9.10;5.00;;;16.90;99.90;;;;;;6151041;23;20017;-70
2023/08/11 04:41:06;;;;;;;7.72;5.28;;;16.90;99.90;;;;;;6150086;23;20132;-70
2023/08/11 04:43:52;;;;;;;7.68;4.82;;;16.90;99.90;;;;;;6151453;23;20113;-70
2023/08/11 04:46:37;;;;;;;6.97;4.78;;;16.90;99.90;;;;;;6150282;23;20024;-70
2023/08/11 04:49:24;;;;;;;8.82;4.85;;;16.90;99.90;;;;;;6149978;23;20431;-70
2023/08/11 04:52:10;;;;;;;9.10;4.47;;;16.90;99.90;;;;;;6150661;23;20029;-69
2023/08/11 04:54:56;;;;;;;10.73;4.75;;;16.90;99.90;;;;;;6133398;23;20009;-67
2023/08/11 04:57:41;;;;;;;11.30;5.78;;;16.90;99.90;;;;;;6153431;23;20023;-72
2023/08/11 05:00:27;;;;;;;7.85;5.03;;;17.00;99.90;;;;;;6151261;23;20092;-68
2023/08/11 05:03:13;;;;;;;7.07;4.60;;;17.00;99.90;;;;;;6151069;23;20452;-70
2023/08/11 05:05:59;;;;;;;8.82;5.03;;;17.10;99.90;;;;;;6150629;23;20084;-69
2023/08/11 05:08:47;;;;;;;6.50;4.55;;;17.10;99.90;;;;;;6147449;23;20017;-67
2023/08/11 05:11:33;;;;;;;8.23;5.43;;;17.10;99.90;;;;;;6148017;23;20005;-67
2023/08/11 05:14:19;;;;;;;7.50;4.40;;;17.10;99.90;;;;;;6149355;23;20013;-66
2023/08/11 05:17:05;;;;;;;11.15;5.65;;;17.20;99.90;;;;;;6148320;23;20436;-66
2023/08/11 05:19:50;;;;;;;5.45;4.45;;;17.20;99.90;;;;;;6149115;23;20010;-66
2023/08/11 05:22:37;;;;;;;8.57;4.30;;;17.20;99.90;;;;;;6149887;23;20010;-68
2023/08/11 05:25:23;;;;;;;7.80;4.60;;;17.20;99.90;;;;;;6148911;23;20399;-72
2023/08/11 05:28:08;;;;;;;10.30;4.40;;;17.30;99.90;;;;;;6149828;23;20005;-72
2023/08/11 05:30:56;;;;;;;8.32;4.00;;;17.30;99.90;;;;;;6147765;23;20020;-72
2023/08/11 05:33:42;;;;;;;7.32;4.65;;;17.40;99.90;;;;;;6148039;23;20001;-72
2023/08/11 05:36:28;;;;;;;9.35;4.57;;;17.50;99.90;;;;;;6150620;23;20009;-70
2023/08/11 05:39:14;;;;;;;7.47;4.35;;;17.60;99.90;;;;;;6125532;23;20018;-68
2023/08/11 05:42:00;;;;;;;10.20;4.70;;;17.70;99.90;;;;;;6147117;23;20077;-68
2023/08/11 05:44:46;;;;;;;11.65;4.78;;;17.80;99.90;;;;;;6148724;23;20014;-68
2023/08/11 05:47:32;;;;;;;5.18;3.42;;;17.90;99.90;;;;;;6148673;23;20427;-68
2023/08/11 05:50:18;;;;;;;10.40;3.97;;;18.00;99.90;;;;;;6149632;23;20438;-68
2023/08/11 05:53:04;;;;;;;8.95;3.50;;;18.20;99.90;;;;;;6149705;23;20032;-68
2023/08/11 05:55:50;;;;;;;7.30;3.75;;;18.30;99.90;;;;;;6148632;23;20063;-68
2023/08/11 05:58:36;;;;;;;9.90;3.72;;;18.30;99.70;;;;;;6150660;23;20044;-68
2023/08/11 06:01:22;;;;;;;5.45;4.18;;;18.40;99.60;;;;;;6148031;23;20005;-68
2023/08/11 06:04:08;;;;;;;13.02;4.00;;;18.50;99.40;;;;;;6149675;23;20010;-68
2023/08/11 06:06:54;;;;;;;5.80;3.28;;;18.50;99.30;;;;;;6149450;23;20006;-65
2023/08/11 06:09:40;;;;;;;4.97;3.67;;;18.70;99.20;;;;;;6149564;23;20041;-65
2023/08/11 06:12:26;;;;;;;7.40;3.70;;;18.70;99.20;;;;;;6150255;23;20016;-67
2023/08/11 06:15:12;;;;;;;7.32;3.30;;;18.80;99.20;;;;;;6150596;23;20009;-67
2023/08/11 06:17:58;;;;;;;6.18;3.50;;;18.90;99.20;;;;;;6150282;23;20018;-73
2023/08/11 06:20:45;;;;;;;5.20;3.70;;;19.00;99.10;;;;;;6151396;23;20012;-68
2023/08/11 06:23:33;;;;;;;11.13;3.72;;;19.10;98.90;;;;;;6149432;23;20021;-68
2023/08/11 06:26:19;;;;;;;6.65;3.00;;;19.20;98.70;;;;;;6151838;23;20017;-68
2023/08/11 06:29:05;;;;;;;5.28;3.95;;;19.30;98.60;;;;;;6152712;23;20041;-70
2023/08/11 06:31:51;;;;;;;6.35;3.63;;;19.40;98.30;;;;;;6151034;23;20392;-68
2023/08/11 06:34:37;;;;;;;5.43;3.25;;;19.50;98.20;;;;;;6151093;23;20013;-68
2023/08/11 06:37:23;;;;;;;9.70;4.40;;;19.60;98.00;;;;;;6152967;23;20069;-69
2023/08/11 06:40:11;;;;;;;8.52;4.20;;;19.70;98.10;;;;;;6152926;23;20092;-69
2023/08/11 06:42:57;;;;;;;9.90;3.83;;;19.80;97.60;;;;;;6149173;23;20526;-68
2023/08/11 06:45:45;;;;;;;11.20;5.25;;;19.90;97.40;;;;;;6150211;23;20024;-69
2023/08/11 06:48:31;;;;;;;8.40;4.80;;;20.00;97.60;;;;;;6151669;23;20001;-69
2023/08/11 06:51:17;;;;;;;5.03;3.50;;;20.10;97.50;;;;;;6151643;23;20028;-68
2023/08/11 06:54:03;;;;;;;9.05;3.88;;;20.20;97.30;;;;;;6152824;23;20013;-68
2023/08/11 06:56:49;;;;;;;6.28;3.97;;;20.30;97.30;;;;;;6150982;23;20076;-69
2023/08/11 06:59:35;;;;;;;8.38;3.78;;;20.40;97.00;;;;;;6152478;23;20035;-69
2023/08/11 07:02:21;;;;;;;5.90;3.38;;;20.40;96.90;;;;;;6152110;23;19997;-69
2023/08/11 07:05:07;;;;;;;6.57;3.28;;;20.50;96.70;;;;;;6150989;23;20016;-69
2023/08/11 07:07:53;;;;;;;5.65;3.10;;;20.50;96.40;;;;;;6149523;23;20064;-68
2023/08/11 07:10:39;;;;;;;7.03;2.80;;;20.60;96.30;;;;;;6151345;23;20002;-69
2023/08/11 07:13:25;;;;;;;7.13;3.58;;;20.60;96.20;;;;;;6150798;23;20022;-69
2023/08/11 07:16:11;;;;;;;5.88;2.80;;;20.70;96.20;;;;;;6128934;23;20041;-69
2023/08/11 07:18:57;;;;;;;6.70;3.47;;;20.80;96.10;;;;;;6151471;23;20436;-69
2023/08/11 07:21:43;;;;;;;5.07;2.90;;;20.80;96.00;;;;;;6148013;23;20006;-68
2023/08/11 07:24:29;;;;;;;10.93;4.30;;;20.90;95.80;;;;;;6150915;23;20009;-69
2023/08/11 07:27:15;;;;;;;6.50;3.90;;;21.00;95.50;;;;;;6152017;23;20017;-69
2023/08/11 07:30:01;;;;;;;17.25;4.25;;;21.10;95.50;;;;;;6153705;23;20005;-69
2023/08/11 07:32:47;;;;;;;6.28;2.75;;;21.10;95.30;;;;;;6130693;23;20008;-69
2023/08/11 07:35:32;;;;;;;4.20;2.80;;;21.10;94.40;;;;;;6151390;23;20021;-69
2023/08/11 07:38:20;;;;;;;6.43;2.30;;;21.20;94.40;;;;;;6150654;23;20118;-69
2023/08/11 07:41:06;;;;;;;5.60;3.03;;;21.30;94.40;;;;;;6129907;23;20009;-69
2023/08/11 07:43:52;;;;;;;5.53;3.05;;;21.40;94.40;;;;;;6150921;23;20018;-69
2023/08/11 07:46:38;;;;;;;5.68;2.55;;;21.50;94.30;;;;;;6148063;23;20036;-69
2023/08/11 07:49:24;;;;;;;13.07;3.45;;;21.60;94.20;;;;;;6150375;23;20006;-69
2023/08/11 07:52:10;;;;;;;8.00;2.83;;;21.80;94.20;;;;;;6149044;23;20002;-68
2023/08/11 07:54:56;;;;;;;6.60;2.50;;;21.90;93.10;;;;;;6150706;23;20050;-69
2023/08/11 07:57:42;;;;;;;6.03;2.63;;;21.90;92.60;;;;;;6151870;23;20060;-69
2023/08/11 08:00:28;;;;;;;7.65;2.95;;;22.00;92.40;;;;;;6127760;23;20005;-68
2023/08/11 08:03:14;;;;;;;5.78;2.78;;;22.10;92.90;;;;;;6150083;23;20696;-68
2023/08/11 08:06:01;;;;;;;7.15;2.15;;;22.10;91.60;;;;;;6148929;23;20005;-69
2023/08/11 08:08:48;;;;;;;4.38;2.20;;;22.10;91.60;;;;;;6128144;23;20009;-70
2023/08/11 08:11:34;;;;;;;3.08;1.77;;;22.30;91.60;;;;;;6126273;23;20280;-70
2023/08/11 08:14:20;;;;;;;3.85;2.00;;;22.40;91.10;;;;;;6151292;23;20383;-71
2023/08/11 08:17:06;;;;;;;2.67;1.80;;;22.40;91.00;;;;;;6147775;23;20006;-70
2023/08/11 08:19:52;;;;;;;10.35;2.30;;;22.50;90.90;;;;;;6150223;23;20014;-70
2023/08/11 08:22:38;;;;;;;3.50;1.92;;;22.50;90.80;;;;;;6150751;23;20009;-70
2023/08/11 08:25:25;;;;;;;3.30;1.65;;;22.40;90.50;;;;;;6147774;23;20352;-70
2023/08/11 08:28:11;;;;;;;4.43;1.83;;;22.30;89.30;;;;;;6147492;23;20068;-70
2023/08/11 08:30:59;;;;;;;3.03;1.80;;;22.20;88.30;;;;;;6149306;23;20005;-70
2023/08/11 08:33:45;;;;;;;4.13;2.17;;;22.10;88.60;;;;;;6149294;23;20011;-70
2023/08/11 08:36:31;;;;;;;3.35;1.80;;;22.10;88.90;;;;;;6128690;23;20036;-70
2023/08/11 08:39:17;;;;;;;6.68;2.13;;;22.10;88.70;;;;;;6150459;23;20017;-70
2023/08/11 08:42:05;;;;;;;3.15;1.70;;;22.10;87.80;;;;;;6148760;23;20510;-70
2023/08/11 08:44:52;;;;;;;4.30;1.95;;;22.10;87.80;;;;;;6149273;23;20016;-70
2023/08/11 08:47:41;;;;;;;3.30;1.50;;;22.10;87.40;;;;;;6152663;23;20043;-70
2023/08/11 08:50:28;;;;;;;3.20;1.77;;;22.10;88.00;;;;;;6128935;23;20005;-70
2023/08/11 08:53:14;;;;;;;3.72;1.92;;;22.10;87.60;;;;;;6150256;23;20055;-70
2023/08/11 08:56:04;;;;;;;7.20;2.17;;;22.20;87.70;;;;;;6147549;23;20013;-70
2023/08/11 08:58:51;;;;;;;2.13;1.58;;;22.20;87.60;;;;;;6130231;23;20039;-70
2023/08/11 09:01:38;;;;;;;3.25;1.63;;;22.20;87.70;;;;;;6148722;23;20067;-70
2023/08/11 09:04:25;;;;;;;5.63;1.88;;;22.30;87.70;;;;;;6128761;23;20005;-70
2023/08/11 09:07:12;;;;;;;3.45;1.85;;;22.30;87.00;;;;;;6148234;23;20447;-70
2023/08/11 09:09:58;;;;;;;5.43;1.88;;;22.30;87.20;;;;;;6149859;23;20488;-70
2023/08/11 09:12:44;;;;;;;5.60;1.70;;;22.40;87.30;;;;;;6150636;23;20013;-70
2023/08/11 09:15:30;;;;;;;2.70;1.60;;;22.40;86.90;;;;;;6149700;23;20447;-70
2023/08/11 09:18:16;;;;;;;4.28;1.50;;;22.40;85.70;;;;;;6151660;23;20021;-69
2023/08/11 09:21:02;;;;;;;3.63;1.40;;;22.40;86.30;;;;;;6148779;23;20317;-69
2023/08/11 09:23:55;;;;;;;2.58;1.38;;;22.50;86.60;;;;;;6150911;23;20570;-69
2023/08/11 09:26:52;;;;;;;4.07;1.80;;;22.60;86.30;;;;;;6146647;23;20081;-69
2023/08/11 09:29:38;;;;;;;6.22;1.80;;;22.70;86.60;;;;;;6147529;23;20036;-69
2023/08/11 09:32:24;;;;;;;4.15;1.50;;;22.90;86.30;;;;;;6147626;23;20343;-69
2023/08/11 09:35:12;;;;;;;2.72;1.42;;;23.00;86.20;;;;;;6151088;23;20013;-69
2023/08/11 09:37:58;;;;;;;2.38;1.23;;;23.10;85.90;;;;;;6150152;23;20391;-70
2023/08/11 09:40:45;;;;;;;3.20;1.60;;;23.30;85.30;;;;;;6150317;23;20340;-70
2023/08/11 09:43:31;;;;;;;1.65;1.27;;;23.40;85.40;;;;;;6149570;23;20055;-70
2023/08/11 09:46:18;;;;;;;3.40;1.40;;;23.50;85.60;;;;;;6148700;23;20040;-70
2023/08/11 09:49:05;;;;;;;1.95;1.10;;;23.60;85.50;;;;;;6149048;23;20407;-70
2023/08/11 09:51:54;;;;;;;2.83;1.52;;;23.80;85.30;;;;;;6148049;23;20012;-69
2023/08/11 09:54:42;;;;;;;8.13;1.35;;;23.90;86.00;;;;;;6128338;23;20020;-71
2023/08/11 09:57:28;;;;;;;1.42;1.13;;;24.00;84.70;;;;;;6149320;23;20304;-70
2023/08/11 10:00:14;;;;;;;3.45;1.35;;;24.00;83.80;;;;;;6149402;23;20045;-70
2023/08/11 10:03:12;;;;;;;1.88;1.30;;;24.10;84.10;;;;;;6148972;23;20005;-70
2023/08/11 10:06:01;;;;;;;2.78;1.13;;;24.20;84.40;;;;;;6131764;23;20016;-70
2023/08/11 10:08:50;;;;;;;1.95;1.13;;;24.30;84.10;;;;;;6153931;23;20006;-70
2023/08/11 10:11:36;;;;;;;2.97;1.00;;;24.40;83.90;;;;;;6129465;23;20014;-70
2023/08/11 10:14:22;;;;;;;3.20;1.38;;;24.50;83.60;;;;;;6149804;23;20006;-70
2023/08/11 10:17:11;;;;;;;1.52;1.17;;;24.50;82.10;;;;;;6148881;23;20014;-70
2023/08/11 10:20:04;;;;;;;2.63;1.15;;;24.60;82.30;;;;;;6130629;23;20014;-70
2023/08/11 10:22:50;;;;;;;2.33;1.17;;;24.70;82.90;;;;;;6150807;23;20013;-70
2023/08/11 10:25:36;;;;;;;1.63;0.88;;;24.70;82.90;;;;;;6149934;23;20005;-70
2023/08/11 10:28:23;;;;;;;17.23;1.48;;;24.80;82.60;;;;;;6148087;23;20439;-70
2023/08/11 10:31:08;;;;;;;1.48;1.10;;;24.90;82.80;;;;;;6147830;23;20010;-71
2023/08/11 10:33:54;;;;;;;2.28;1.05;;;25.00;82.50;;;;;;6150169;23;20093;-69
2023/08/11 10:36:41;;;;;;;2.45;1.10;;;25.00;82.30;;;;;;6150988;23;20044;-70
2023/08/11 10:39:27;;;;;;;3.72;1.30;;;25.00;82.00;;;;;;6149894;23;20321;-70
2023/08/11 10:42:13;;;;;;;2.38;1.23;;;25.00;82.20;;;;;;6128945;23;20438;-69
2023/08/11 10:45:13;;;;;;;1.85;1.30;;;25.00;81.40;;;;;;6150435;23;20430;-70
2023/08/11 10:48:05;;;;;;;2.05;0.93;;;24.90;81.50;;;;;;6146883;23;20012;-69
2023/08/11 10:50:51;;;;;;;4.05;1.27;;;24.90;81.00;;;;;;6150679;23;20014;-69
2023/08/11 10:53:39;;;;;;;1.70;1.42;;;24.90;80.50;;;;;;6151159;23;20405;-69
2023/08/11 10:56:34;;;;;;;3.30;1.30;;;24.90;81.70;;;;;;6148313;23;20080;-69
2023/08/11 10:59:31;;;;;;;1.85;1.30;;;24.90;80.80;;;;;;6146491;23;20018;-70
2023/08/11 11:02:20;;;;;;;1.58;1.20;;;24.90;81.00;;;;;;6150200;23;20010;-70
2023/08/11 11:05:07;;;;;;;4.22;1.17;;;24.90;81.10;;;;;;6148934;23;20002;-68
2023/08/11 11:07:54;;;;;;;4.85;1.10;;;24.90;80.80;;;;;;6151561;23;20064;-68
2023/08/11 11:10:41;;;;;;;1.58;1.00;;;25.00;80.70;;;;;;6150089;23;20009;-68
2023/08/11 11:13:27;;;;;;;2.97;1.30;;;25.00;80.10;;;;;;6151855;23;20006;-67
2023/08/11 11:16:13;;;;;;;4.60;1.23;;;25.00;80.30;;;;;;6153262;23;20064;-68
2023/08/11 11:19:00;;;;;;;4.50;1.50;;;25.00;80.30;;;;;;6153170;23;20092;-71
2023/08/11 11:21:47;;;;;;;2.10;1.10;;;25.10;80.30;;;;;;6151450;23;20036;-70
2023/08/11 11:24:33;;;;;;;1.95;1.27;;;25.10;79.90;;;;;;6151626;23;20006;-67
2023/08/11 11:27:21;;;;;;;2.53;1.48;;;25.00;79.80;;;;;;6152800;23;20013;-70
2023/08/11 11:30:08;;;;;;;2.15;1.13;;;25.10;80.00;;;;;;6148156;23;20006;-71
2023/08/11 11:32:54;;;;;;;1.33;1.23;;;25.00;80.00;;;;;;6129621;23;20055;-70
2023/08/11 11:35:40;;;;;;;2.05;1.23;;;25.00;80.50;;;;;;6151177;23;20013;-70
2023/08/11 11:38:26;;;;;;;4.00;1.25;;;25.00;80.60;;;;;;6150082;23;20013;-70
2023/08/11 11:41:17;;;;;;;2.28;1.20;;;25.00;80.40;;;;;;6152696;23;20450;-70
2023/08/11 11:44:03;;;;;;;2.40;1.27;;;25.00;80.30;;;;;;6149752;23;20033;-71
2023/08/11 11:46:51;;;;;;;2.65;1.60;;;25.00;79.90;;;;;;6150878;23;20088;-71
2023/08/11 11:49:37;;;;;;;3.00;1.27;;;25.00;80.20;;;;;;6152321;23;20017;-71
2023/08/11 11:52:24;;;;;;;2.20;1.20;;;24.90;80.00;;;;;;6151641;23;20012;-70
2023/08/11 11:55:10;;;;;;;3.17;1.67;;;25.00;79.80;;;;;;6150226;23;20001;-70
2023/08/11 11:57:57;;;;;;;2.67;1.48;;;24.90;80.00;;;;;;6151377;23;20036;-70
2023/08/11 12:00:46;;;;;;;5.45;1.30;;;24.90;80.00;;;;;;6130738;23;20009;-70
2023/08/11 12:03:32;;;;;;;1.77;1.20;;;24.90;80.10;;;;;;6152223;23;20014;-70
2023/08/11 12:06:19;;;;;;;4.78;1.38;;;24.90;79.90;;;;;;6129243;23;20002;-70
2023/08/11 12:09:09;;;;;;;3.30;1.35;;;24.90;80.00;;;;;;6151863;23;20010;-70
2023/08/11 12:11:57;;;;;;;2.63;1.42;;;25.00;79.70;;;;;;6149007;23;19998;-72
2023/08/11 12:14:43;;;;;;;1.30;1.00;;;25.00;79.50;;;;;;6149140;23;20014;-71
2023/08/11 12:17:34;;;;;;;2.38;1.55;;;24.90;79.40;;;;;;6151271;23;20037;-70
2023/08/11 12:20:22;;;;;;;1.58;1.10;;;25.00;80.10;;;;;;6128231;23;20010;-71
2023/08/11 12:23:07;;;;;;;3.72;1.30;;;25.10;80.30;;;;;;6150605;23;20173;-71
2023/08/11 12:25:54;;;;;;;1.98;1.52;;;25.10;80.50;;;;;;6150507;23;20032;-72
2023/08/11 12:28:40;;;;;;;4.20;1.40;;;25.10;79.80;;;;;;6150962;23;20017;-72
2023/08/11 12:31:26;;;;;;;1.58;1.10;;;25.10;79.70;;;;;;6129494;23;20005;-71
2023/08/11 12:34:12;;;;;;;1.80;1.30;;;25.20;79.60;;;;;;6150995;23;20024;-72
2023/08/11 12:36:58;;;;;;;1.48;0.95;;;25.20;79.20;;;;;;6129107;23;20013;-69
2023/08/11 12:39:44;;;;;;;1.35;1.20;;;25.20;79.30;;;;;;6128365;23;20024;-70
2023/08/11 12:42:30;;;;;;;2.10;1.30;;;25.30;79.30;;;;;;6151358;23;20436;-72
2023/08/11 12:45:16;;;;;;;1.48;1.20;;;25.20;79.30;;;;;;6149276;23;20750;-70
2023/08/11 12:48:02;;;;;;;2.35;1.23;;;25.30;79.50;;;;;;6155746;23;20443;-70
2023/08/11 12:50:48;;;;;;;2.58;1.25;;;25.40;79.70;;;;;;6149062;23;20065;-72
2023/08/11 12:53:34;;;;;;;2.60;1.10;;;25.40;80.00;;;;;;6150880;23;20348;-70
2023/08/11 12:56:20;;;;;;;2.15;1.25;;;25.40;79.60;;;;;;6151494;23;20045;-70
2023/08/11 12:59:05;;;;;;;2.17;1.48;;;25.50;79.00;;;;;;6151026;23;20013;-71
2023/08/11 13:01:51;;;;;;;2.08;1.00;;;25.50;79.30;;;;;;6149532;23;20009;-72
2023/08/11 13:04:37;;;;;;;2.65;1.30;;;25.60;79.10;;;;;;6151068;23;20017;-71
2023/08/11 13:07:23;;;;;;;1.60;1.10;;;25.60;79.00;;;;;;6151129;23;20014;-71
2023/08/11 13:10:12;;;;;;;2.40;1.00;;;25.70;78.60;;;;;;6150751;23;20420;-71
2023/08/11 13:12:58;;;;;;;2.08;1.20;;;25.70;78.70;;;;;;6146717;23;20060;-71
2023/08/11 13:15:44;;;;;;;1.27;1.00;;;25.80;78.60;;;;;;6149125;23;20010;-71
2023/08/11 13:18:30;;;;;;;3.60;1.35;;;25.90;78.50;;;;;;6149438;23;20020;-72
2023/08/11 13:21:17;;;;;;;2.00;0.90;;;25.80;78.00;;;;;;6150335;23;20001;-71
2023/08/11 13:24:03;;;;;;;2.20;1.05;;;25.90;78.10;;;;;;6150298;23;20013;-71
2023/08/11 13:26:49;;;;;;;1.30;0.90;;;25.90;78.10;;;;;;6127302;23;20060;-71
2023/08/11 13:29:35;;;;;;;1.58;0.85;;;25.90;78.30;;;;;;6145982;23;20020;-71
2023/08/11 13:32:21;;;;;;;1.27;0.60;;;26.00;78.10;;;;;;6149502;23;20020;-71
2023/08/11 13:35:08;;;;;;;4.05;1.40;;;26.10;78.20;;;;;;6150632;23;20076;-71
2023/08/11 13:37:54;;;;;;;1.42;1.05;;;26.20;78.20;;;;;;6148347;23;20017;-71
2023/08/11 13:40:41;;;;;;;2.90;1.40;;;26.30;78.20;;;;;;6150184;23;20009;-70
2023/08/11 13:43:27;;;;;;;2.25;1.40;;;26.40;78.20;;;;;;6147630;23;20583;-70
2023/08/11 13:46:12;;;;;;;2.85;1.13;;;26.50;78.00;;;;;;6147922;23;20014;-71
2023/08/11 13:48:58;;;;;;;1.08;0.93;;;26.50;78.10;;;;;;6151374;23;20093;-71
2023/08/11 13:51:45;;;;;;;3.28;1.08;;;26.60;77.70;;;;;;6147945;23;20037;-71
2023/08/11 13:54:31;;;;;;;2.22;0.98;;;26.60;77.50;;;;;;6148052;23;20009;-71
2023/08/11 13:57:17;;;;;;;2.55;1.27;;;26.70;77.60;;;;;;6149604;23;20335;-70
2023/08/11 14:00:06;;;;;;;3.25;1.33;;;26.80;77.30;;;;;;6148910;23;20096;-70
2023/08/11 14:02:53;;;;;;;1.85;1.13;;;26.90;77.30;;;;;;6146944;23;20335;-71
2023/08/11 14:05:39;;;;;;;2.42;1.48;;;27.00;77.30;;;;;;6145607;23;20511;-71
2023/08/11 14:08:25;;;;;;;1.90;1.10;;;27.00;77.20;;;;;;6149820;23;20009;-71
2023/08/11 14:11:13;;;;;;;3.55;1.10;;;27.00;76.40;;;;;;6149283;23;20706;-71
2023/08/11 14:13:59;;;;;;;2.53;1.15;;;27.10;76.20;;;;;;6148485;23;20076;-72
2023/08/11 14:16:45;;;;;;;1.63;0.90;;;27.20;75.90;;;;;;6146259;23;20013;-72
2023/08/11 14:19:31;;;;;;;1.30;1.20;;;27.20;75.80;;;;;;6148713;23;20021;-71
2023/08/11 14:22:17;;;;;;;2.22;1.20;;;27.20;75.70;;;;;;6150283;23;20009;-73
2023/08/11 14:25:04;;;;;;;1.42;1.23;;;27.30;75.60;;;;;;6126483;23;20013;-72
2023/08/11 14:27:50;;;;;;;1.42;1.10;;;27.30;76.00;;;;;;6129165;23;20002;-72